sensor_id;sensor_type;location;lat;lon;timestamp;P1;durP1;ratioP1;P2;durP2;ratioP2
9940;SDS011;5009;50.656;7.188;2023-09-19T04:02:15;5.93;;;2.90;;
9940;SDS011;5009;50.656;7.188;2023-09-19T04:04:50;6.10;;;2.73;;
9940;SDS011;5009;50.656;7.188;2023-09-19T04:07:17;7.73;;;2.90;;
9940;SDS011;5009;50.656;7.188;2023-09-19T04:09:44;6.27;;;2.47;;
9940;SDS011;5009;50.656;7.188;2023-09-19T04:12:10;4.43;;;2.63;;
9940;SDS011;5009;50.656;7.188;2023-09-19T04:14:36;4.73;;;2.40;;
9940;SDS011;5009;50.656;7.188;2023-09-19T04:17:02;4.83;;;3.13;;
9940;SDS011;5009;50.656;7.188;2023-09-19T04:19:28;7.13;;;2.77;;
9940;SDS011;5009;50.656;7.188;2023-09-19T04:21:54;2.80;;;2.30;;
9940;SDS011;5009;50.656;7.188;2023-09-19T04:24:19;7.57;;;2.73;;
9940;SDS011;5009;50.656;7.188;2023-09-19T04:26:45;7.73;;;2.90;;
9940;SDS011;5009;50.656;7.188;2023-09-19T04:29:11;3.60;;;2.70;;
9940;SDS011;5009;50.656;7.188;2023-09-19T04:31:38;4.77;;;2.50;;
9940;SDS011;5009;50.656;7.188;2023-09-19T04:34:05;7.80;;;2.80;;
9940;SDS011;5009;50.656;7.188;2023-09-19T04:36:31;4.37;;;2.23;;
9940;SDS011;5009;50.656;7.188;2023-09-19T04:38:56;7.00;;;2.53;;
9940;SDS011;5009;50.656;7.188;2023-09-19T04:41:22;4.20;;;2.20;;
9940;SDS011;5009;50.656;7.188;2023-09-19T04:43:49;5.17;;;2.47;;
9940;SDS011;5009;50.656;7.188;2023-09-19T04:46:15;6.57;;;2.73;;
9940;SDS011;5009;50.656;7.188;2023-09-19T04:48:42;7.87;;;2.60;;
9940;SDS011;5009;50.656;7.188;2023-09-19T04:51:08;5.87;;;2.43;;
9940;SDS011;5009;50.656;7.188;2023-09-19T04:53:35;4.47;;;2.87;;
9940;SDS011;5009;50.656;7.188;2023-09-19T04:56:01;4.60;;;2.67;;
9940;SDS011;5009;50.656;7.188;2023-09-19T04:58:28;6.13;;;2.70;;
9940;SDS011;5009;50.656;7.188;2023-09-19T05:00:54;5.47;;;2.57;;
9940;SDS011;5009;50.656;7.188;2023-09-19T05:03:19;4.63;;;2.87;;
9940;SDS011;5009;50.656;7.188;2023-09-19T05:05:47;5.00;;;2.50;;
9940;SDS011;5009;50.656;7.188;2023-09-19T05:08:12;4.73;;;2.40;;
9940;SDS011;5009;50.656;7.188;2023-09-19T05:10:39;4.93;;;3.00;;
9940;SDS011;5009;50.656;7.188;2023-09-19T05:13:05;5.73;;;2.40;;
9940;SDS011;5009;50.656;7.188;2023-09-19T05:15:32;4.97;;;2.77;;
9940;SDS011;5009;50.656;7.188;2023-09-19T05:17:58;6.97;;;2.57;;
9940;SDS011;5009;50.656;7.188;2023-09-19T05:20:23;4.87;;;2.60;;
9940;SDS011;5009;50.656;7.188;2023-09-19T05:22:57;5.83;;;2.87;;
9940;SDS011;5009;50.656;7.188;2023-09-19T05:25:26;5.57;;;3.00;;
9940;SDS011;5009;50.656;7.188;2023-09-19T05:27:54;4.93;;;2.90;;
9940;SDS011;5009;50.656;7.188;2023-09-19T05:30:25;3.83;;;2.60;;
9940;SDS011;5009;50.656;7.188;2023-09-19T05:32:52;9.47;;;2.90;;
9940;SDS011;5009;50.656;7.188;2023-09-19T05:35:19;4.63;;;2.50;;
9940;SDS011;5009;50.656;7.188;2023-09-19T05:37:46;5.43;;;2.60;;
9940;SDS011;5009;50.656;7.188;2023-09-19T05:40:14;5.67;;;2.40;;
9940;SDS011;5009;50.656;7.188;2023-09-19T05:42:41;4.63;;;2.90;;
9940;SDS011;5009;50.656;7.188;2023-09-19T05:45:08;5.93;;;2.77;;
9940;SDS011;5009;50.656;7.188;2023-09-19T05:47:38;7.20;;;3.23;;
9940;SDS011;5009;50.656;7.188;2023-09-19T05:50:06;6.63;;;2.87;;
9940;SDS011;5009;50.656;7.188;2023-09-19T05:52:33;7.70;;;2.80;;
9940;SDS011;5009;50.656;7.188;2023-09-19T05:55:00;7.93;;;2.83;;
9940;SDS011;5009;50.656;7.188;2023-09-19T05:57:25;5.03;;;2.77;;
9940;SDS011;5009;50.656;7.188;2023-09-19T05:59:51;7.10;;;3.13;;
9940;SDS011;5009;50.656;7.188;2023-09-19T06:02:16;6.47;;;2.90;;
9940;SDS011;5009;50.656;7.188;2023-09-19T06:04:44;4.63;;;2.70;;
9940;SDS011;5009;50.656;7.188;2023-09-19T06:07:09;7.47;;;3.37;;
9940;SDS011;5009;50.656;7.188;2023-09-19T06:09:35;6.30;;;2.80;;
9940;SDS011;5009;50.656;7.188;2023-09-19T06:12:01;6.40;;;2.83;;
9940;SDS011;5009;50.656;7.188;2023-09-19T06:14:28;4.47;;;2.50;;
9940;SDS011;5009;50.656;7.188;2023-09-19T06:16:54;10.43;;;2.90;;
9940;SDS011;5009;50.656;7.188;2023-09-19T06:19:20;5.80;;;2.90;;
9940;SDS011;5009;50.656;7.188;2023-09-19T06:21:48;18.03;;;4.10;;
9940;SDS011;5009;50.656;7.188;2023-09-19T06:24:14;14.97;;;4.60;;
9940;SDS011;5009;50.656;7.188;2023-09-19T06:26:39;14.93;;;4.27;;
9940;SDS011;5009;50.656;7.188;2023-09-19T06:29:05;20.90;;;3.97;;
9940;SDS011;5009;50.656;7.188;2023-09-19T06:31:34;11.53;;;3.47;;
9940;SDS011;5009;50.656;7.188;2023-09-19T06:33:59;7.37;;;3.50;;
9940;SDS011;5009;50.656;7.188;2023-09-19T06:36:25;8.85;;;3.50;;
9940;SDS011;5009;50.656;7.188;2023-09-19T06:38:50;8.10;;;3.00;;
9940;SDS011;5009;50.656;7.188;2023-09-19T06:41:17;6.77;;;3.60;;
9940;SDS011;5009;50.656;7.188;2023-09-19T06:43:43;9.27;;;3.17;;
9940;SDS011;5009;50.656;7.188;2023-09-19T06:46:09;12.23;;;3.77;;
9940;SDS011;5009;50.656;7.188;2023-09-19T06:48:34;6.55;;;3.38;;
9940;SDS011;5009;50.656;7.188;2023-09-19T06:51:00;9.70;;;3.67;;
9940;SDS011;5009;50.656;7.188;2023-09-19T06:53:30;6.10;;;2.80;;
9940;SDS011;5009;50.656;7.188;2023-09-19T06:55:57;7.40;;;2.97;;
9940;SDS011;5009;50.656;7.188;2023-09-19T06:58:22;7.43;;;3.28;;
9940;SDS011;5009;50.656;7.188;2023-09-19T07:00:48;7.65;;;3.53;;
9940;SDS011;5009;50.656;7.188;2023-09-19T07:03:15;6.60;;;2.90;;
9940;SDS011;5009;50.656;7.188;2023-09-19T07:05:46;5.75;;;3.47;;
9940;SDS011;5009;50.656;7.188;2023-09-19T07:08:13;7.80;;;3.47;;
9940;SDS011;5009;50.656;7.188;2023-09-19T07:10:39;8.20;;;3.05;;
9940;SDS011;5009;50.656;7.188;2023-09-19T07:13:06;9.45;;;3.30;;
9940;SDS011;5009;50.656;7.188;2023-09-19T07:15:36;7.47;;;3.08;;
9940;SDS011;5009;50.656;7.188;2023-09-19T07:18:11;6.32;;;3.35;;
9940;SDS011;5009;50.656;7.188;2023-09-19T07:20:37;10.05;;;3.42;;
9940;SDS011;5009;50.656;7.188;2023-09-19T07:23:03;7.50;;;3.25;;
9940;SDS011;5009;50.656;7.188;2023-09-19T07:25:29;7.18;;;3.35;;
9940;SDS011;5009;50.656;7.188;2023-09-19T07:27:55;9.73;;;3.55;;
9940;SDS011;5009;50.656;7.188;2023-09-19T07:30:24;9.95;;;3.85;;
9940;SDS011;5009;50.656;7.188;2023-09-19T07:32:51;5.25;;;3.22;;
9940;SDS011;5009;50.656;7.188;2023-09-19T07:35:17;8.90;;;3.85;;
9940;SDS011;5009;50.656;7.188;2023-09-19T07:37:45;7.30;;;3.05;;
9940;SDS011;5009;50.656;7.188;2023-09-19T07:40:14;7.35;;;3.38;;
9940;SDS011;5009;50.656;7.188;2023-09-19T07:42:43;8.73;;;3.70;;
9940;SDS011;5009;50.656;7.188;2023-09-19T07:45:11;19.52;;;3.70;;
9940;SDS011;5009;50.656;7.188;2023-09-19T07:47:45;8.98;;;3.50;;
9940;SDS011;5009;50.656;7.188;2023-09-19T07:50:12;9.77;;;3.75;;
9940;SDS011;5009;50.656;7.188;2023-09-19T07:52:38;9.05;;;2.97;;
9940;SDS011;5009;50.656;7.188;2023-09-19T07:55:05;7.47;;;3.00;;
9940;SDS011;5009;50.656;7.188;2023-09-19T07:57:36;8.55;;;3.72;;
9940;SDS011;5009;50.656;7.188;2023-09-19T08:00:02;9.55;;;3.65;;
9940;SDS011;5009;50.656;7.188;2023-09-19T08:02:35;7.32;;;3.30;;
9940;SDS011;5009;50.656;7.188;2023-09-19T08:05:03;7.15;;;3.40;;
9940;SDS011;5009;50.656;7.188;2023-09-19T08:07:32;7.82;;;3.30;;
9940;SDS011;5009;50.656;7.188;2023-09-19T08:09:57;7.63;;;3.17;;
9940;SDS011;5009;50.656;7.188;2023-09-19T08:12:23;4.75;;;3.00;;
9940;SDS011;5009;50.656;7.188;2023-09-19T08:14:50;7.20;;;3.30;;
9940;SDS011;5009;50.656;7.188;2023-09-19T08:17:15;6.63;;;3.03;;
9940;SDS011;5009;50.656;7.188;2023-09-19T08:19:41;6.07;;;3.25;;
9940;SDS011;5009;50.656;7.188;2023-09-19T08:22:10;6.45;;;3.38;;
9940;SDS011;5009;50.656;7.188;2023-09-19T08:24:36;7.93;;;3.42;;
9940;SDS011;5009;50.656;7.188;2023-09-19T08:27:03;6.57;;;3.00;;
9940;SDS011;5009;50.656;7.188;2023-09-19T08:29:29;5.57;;;2.85;;
9940;SDS011;5009;50.656;7.188;2023-09-19T08:31:58;8.85;;;3.75;;
9940;SDS011;5009;50.656;7.188;2023-09-19T08:34:24;7.60;;;3.67;;
9940;SDS011;5009;50.656;7.188;2023-09-19T08:36:53;8.82;;;3.30;;
9940;SDS011;5009;50.656;7.188;2023-09-19T08:39:23;5.47;;;3.03;;
9940;SDS011;5009;50.656;7.188;2023-09-19T08:41:49;6.55;;;3.50;;
9940;SDS011;5009;50.656;7.188;2023-09-19T08:44:15;5.90;;;3.15;;
9940;SDS011;5009;50.656;7.188;2023-09-19T08:46:41;6.90;;;3.45;;
9940;SDS011;5009;50.656;7.188;2023-09-19T08:49:11;10.20;;;3.63;;
9940;SDS011;5009;50.656;7.188;2023-09-19T08:51:53;8.18;;;3.47;;
9940;SDS011;5009;50.656;7.188;2023-09-19T08:54:26;6.55;;;2.80;;
9940;SDS011;5009;50.656;7.188;2023-09-19T08:56:56;8.82;;;2.88;;
9940;SDS011;5009;50.656;7.188;2023-09-19T08:59:27;9.65;;;3.30;;
9940;SDS011;5009;50.656;7.188;2023-09-19T09:01:54;6.47;;;2.95;;
9940;SDS011;5009;50.656;7.188;2023-09-19T09:04:21;6.75;;;3.30;;
9940;SDS011;5009;50.656;7.188;2023-09-19T09:06:47;5.53;;;3.30;;
9940;SDS011;5009;50.656;7.188;2023-09-19T09:09:18;7.43;;;3.13;;
9940;SDS011;5009;50.656;7.188;2023-09-19T09:11:44;5.88;;;2.80;;
9940;SDS011;5009;50.656;7.188;2023-09-19T09:14:13;5.55;;;2.97;;
9940;SDS011;5009;50.656;7.188;2023-09-19T09:16:39;6.88;;;3.38;;
9940;SDS011;5009;50.656;7.188;2023-09-19T09:19:05;6.32;;;3.53;;
9940;SDS011;5009;50.656;7.188;2023-09-19T09:21:30;5.85;;;3.40;;
9940;SDS011;5009;50.656;7.188;2023-09-19T09:24:20;6.22;;;3.22;;
9940;SDS011;5009;50.656;7.188;2023-09-19T09:26:57;5.55;;;3.45;;
9940;SDS011;5009;50.656;7.188;2023-09-19T09:29:45;7.13;;;3.33;;
9940;SDS011;5009;50.656;7.188;2023-09-19T09:32:34;5.97;;;3.13;;
9940;SDS011;5009;50.656;7.188;2023-09-19T09:35:02;6.22;;;2.92;;
9940;SDS011;5009;50.656;7.188;2023-09-19T09:37:36;6.93;;;3.10;;
9940;SDS011;5009;50.656;7.188;2023-09-19T09:40:04;7.57;;;3.58;;
9940;SDS011;5009;50.656;7.188;2023-09-19T09:42:42;7.13;;;3.35;;
9940;SDS011;5009;50.656;7.188;2023-09-19T09:45:21;7.53;;;3.28;;
9940;SDS011;5009;50.656;7.188;2023-09-19T09:48:02;9.75;;;3.17;;
9940;SDS011;5009;50.656;7.188;2023-09-19T09:50:35;7.03;;;3.58;;
9940;SDS011;5009;50.656;7.188;2023-09-19T09:56:03;5.50;;;3.20;;
9940;SDS011;5009;50.656;7.188;2023-09-19T10:00:59;5.80;;;3.17;;
9940;SDS011;5009;50.656;7.188;2023-09-19T10:03:37;5.53;;;2.97;;
9940;SDS011;5009;50.656;7.188;2023-09-19T10:06:13;4.90;;;2.83;;
9940;SDS011;5009;50.656;7.188;2023-09-19T10:11:45;6.82;;;3.20;;
9940;SDS011;5009;50.656;7.188;2023-09-19T10:14:12;5.70;;;2.97;;
9940;SDS011;5009;50.656;7.188;2023-09-19T10:16:48;5.47;;;3.03;;
9940;SDS011;5009;50.656;7.188;2023-09-19T10:19:37;9.15;;;3.28;;
9940;SDS011;5009;50.656;7.188;2023-09-19T10:22:11;4.95;;;2.72;;
9940;SDS011;5009;50.656;7.188;2023-09-19T10:24:45;6.28;;;3.42;;
9940;SDS011;5009;50.656;7.188;2023-09-19T10:27:12;5.78;;;3.08;;
9940;SDS011;5009;50.656;7.188;2023-09-19T10:29:39;3.88;;;2.85;;
9940;SDS011;5009;50.656;7.188;2023-09-19T10:32:06;4.35;;;2.90;;
9940;SDS011;5009;50.656;7.188;2023-09-19T10:34:34;6.22;;;3.30;;
9940;SDS011;5009;50.656;7.188;2023-09-19T10:37:01;6.60;;;3.15;;
9940;SDS011;5009;50.656;7.188;2023-09-19T10:39:30;4.82;;;3.05;;
9940;SDS011;5009;50.656;7.188;2023-09-19T10:41:57;4.13;;;2.55;;
9940;SDS011;5009;50.656;7.188;2023-09-19T10:44:31;6.90;;;2.97;;
9940;SDS011;5009;50.656;7.188;2023-09-19T10:46:58;5.20;;;2.85;;
9940;SDS011;5009;50.656;7.188;2023-09-19T10:49:24;4.95;;;2.97;;
9940;SDS011;5009;50.656;7.188;2023-09-19T10:51:52;4.90;;;3.08;;
9940;SDS011;5009;50.656;7.188;2023-09-19T10:54:23;4.65;;;2.63;;
9940;SDS011;5009;50.656;7.188;2023-09-19T10:56:53;6.18;;;2.97;;
9940;SDS011;5009;50.656;7.188;2023-09-19T10:59:22;8.18;;;2.90;;
9940;SDS011;5009;50.656;7.188;2023-09-19T11:04:28;4.40;;;2.78;;
9940;SDS011;5009;50.656;7.188;2023-09-19T11:14:58;6.65;;;3.10;;
9940;SDS011;5009;50.656;7.188;2023-09-19T11:30:34;4.85;;;2.85;;
9940;SDS011;5009;50.656;7.188;2023-09-19T11:36:08;3.85;;;3.00;;
9940;SDS011;5009;50.656;7.188;2023-09-19T11:39:01;4.65;;;2.85;;
9940;SDS011;5009;50.656;7.188;2023-09-19T11:41:36;5.68;;;3.08;;
9940;SDS011;5009;50.656;7.188;2023-09-19T11:46:31;5.90;;;3.13;;
9940;SDS011;5009;50.656;7.188;2023-09-19T11:49:08;6.22;;;3.42;;
9940;SDS011;5009;50.656;7.188;2023-09-19T11:51:42;6.55;;;3.10;;
9940;SDS011;5009;50.656;7.188;2023-09-19T11:54:10;6.30;;;3.30;;
9940;SDS011;5009;50.656;7.188;2023-09-19T11:56:49;5.68;;;3.03;;
9940;SDS011;5009;50.656;7.188;2023-09-19T11:59:22;5.78;;;3.17;;
9940;SDS011;5009;50.656;7.188;2023-09-19T12:01:53;6.82;;;3.20;;
9940;SDS011;5009;50.656;7.188;2023-09-19T12:04:32;5.75;;;3.15;;
9940;SDS011;5009;50.656;7.188;2023-09-19T12:07:03;5.10;;;2.92;;
9940;SDS011;5009;50.656;7.188;2023-09-19T12:09:35;5.85;;;3.00;;
9940;SDS011;5009;50.656;7.188;2023-09-19T12:12:05;5.05;;;2.70;;
9940;SDS011;5009;50.656;7.188;2023-09-19T12:14:31;5.18;;;2.80;;
9940;SDS011;5009;50.656;7.188;2023-09-19T12:16:58;5.38;;;2.95;;
9940;SDS011;5009;50.656;7.188;2023-09-19T12:19:26;5.40;;;3.03;;
9940;SDS011;5009;50.656;7.188;2023-09-19T12:24:29;5.47;;;2.83;;
9940;SDS011;5009;50.656;7.188;2023-09-19T12:26:59;4.18;;;2.72;;
9940;SDS011;5009;50.656;7.188;2023-09-19T12:29:26;4.13;;;3.00;;
9940;SDS011;5009;50.656;7.188;2023-09-19T12:31:53;5.18;;;2.50;;
9940;SDS011;5009;50.656;7.188;2023-09-19T12:34:26;6.53;;;2.95;;
9940;SDS011;5009;50.656;7.188;2023-09-19T12:39:46;5.35;;;2.67;;
9940;SDS011;5009;50.656;7.188;2023-09-19T12:42:21;4.20;;;3.08;;
9940;SDS011;5009;50.656;7.188;2023-09-19T12:44:48;4.82;;;2.58;;
9940;SDS011;5009;50.656;7.188;2023-09-19T12:47:20;4.13;;;2.70;;
9940;SDS011;5009;50.656;7.188;2023-09-19T12:52:42;2.92;;;2.40;;
9940;SDS011;5009;50.656;7.188;2023-09-19T12:58:02;4.00;;;2.33;;
9940;SDS011;5009;50.656;7.188;2023-09-19T13:00:40;4.88;;;2.22;;
9940;SDS011;5009;50.656;7.188;2023-09-19T13:05:56;6.05;;;2.88;;
9940;SDS011;5009;50.656;7.188;2023-09-19T13:08:26;5.10;;;2.38;;
9940;SDS011;5009;50.656;7.188;2023-09-19T13:11:04;4.78;;;2.50;;
9940;SDS011;5009;50.656;7.188;2023-09-19T13:13:38;5.80;;;2.65;;
9940;SDS011;5009;50.656;7.188;2023-09-19T13:16:04;3.22;;;2.38;;
9940;SDS011;5009;50.656;7.188;2023-09-19T13:18:41;4.03;;;2.10;;
9940;SDS011;5009;50.656;7.188;2023-09-19T13:21:09;3.67;;;2.38;;
9940;SDS011;5009;50.656;7.188;2023-09-19T13:23:40;4.45;;;2.30;;
9940;SDS011;5009;50.656;7.188;2023-09-19T13:26:08;5.68;;;2.22;;
9940;SDS011;5009;50.656;7.188;2023-09-19T13:28:37;3.88;;;2.20;;
9940;SDS011;5009;50.656;7.188;2023-09-19T13:31:05;3.78;;;2.08;;
9940;SDS011;5009;50.656;7.188;2023-09-19T13:33:32;3.13;;;1.95;;
9940;SDS011;5009;50.656;7.188;2023-09-19T13:35:59;3.58;;;2.20;;
9940;SDS011;5009;50.656;7.188;2023-09-19T13:38:24;3.65;;;2.15;;
9940;SDS011;5009;50.656;7.188;2023-09-19T13:40:50;5.22;;;2.60;;
9940;SDS011;5009;50.656;7.188;2023-09-19T13:43:17;5.25;;;2.38;;
9940;SDS011;5009;50.656;7.188;2023-09-19T13:45:43;4.05;;;2.58;;
9940;SDS011;5009;50.656;7.188;2023-09-19T13:48:08;3.80;;;2.30;;
9940;SDS011;5009;50.656;7.188;2023-09-19T13:50:36;4.82;;;2.00;;
9940;SDS011;5009;50.656;7.188;2023-09-19T13:53:07;5.40;;;2.30;;
9940;SDS011;5009;50.656;7.188;2023-09-19T13:55:33;8.00;;;2.50;;
9940;SDS011;5009;50.656;7.188;2023-09-19T13:57:58;4.07;;;1.95;;
9940;SDS011;5009;50.656;7.188;2023-09-19T14:00:25;5.28;;;2.70;;
9940;SDS011;5009;50.656;7.188;2023-09-19T14:02:51;4.15;;;2.30;;
9940;SDS011;5009;50.656;7.188;2023-09-19T14:05:17;3.70;;;2.22;;
9940;SDS011;5009;50.656;7.188;2023-09-19T14:07:43;3.92;;;2.00;;
9940;SDS011;5009;50.656;7.188;2023-09-19T14:10:10;4.70;;;2.00;;
9940;SDS011;5009;50.656;7.188;2023-09-19T14:12:39;3.83;;;2.22;;
9940;SDS011;5009;50.656;7.188;2023-09-19T14:15:09;3.40;;;2.50;;
9940;SDS011;5009;50.656;7.188;2023-09-19T14:17:35;4.05;;;2.22;;
9940;SDS011;5009;50.656;7.188;2023-09-19T14:20:02;2.97;;;2.05;;
9940;SDS011;5009;50.656;7.188;2023-09-19T14:22:28;5.10;;;2.20;;
9940;SDS011;5009;50.656;7.188;2023-09-19T14:24:56;3.92;;;2.30;;
9940;SDS011;5009;50.656;7.188;2023-09-19T14:27:22;3.63;;;2.30;;
9940;SDS011;5009;50.656;7.188;2023-09-19T14:29:47;4.93;;;2.10;;
9940;SDS011;5009;50.656;7.188;2023-09-19T14:32:13;4.50;;;2.22;;
9940;SDS011;5009;50.656;7.188;2023-09-19T14:34:39;3.08;;;1.95;;
9940;SDS011;5009;50.656;7.188;2023-09-19T14:37:08;4.85;;;2.50;;
9940;SDS011;5009;50.656;7.188;2023-09-19T14:39:33;3.30;;;2.22;;
9940;SDS011;5009;50.656;7.188;2023-09-19T14:41:59;3.25;;;1.77;;
9940;SDS011;5009;50.656;7.188;2023-09-19T14:44:24;4.03;;;2.20;;
9940;SDS011;5009;50.656;7.188;2023-09-19T14:46:50;3.25;;;1.80;;
9940;SDS011;5009;50.656;7.188;2023-09-19T14:49:16;2.75;;;2.10;;
9940;SDS011;5009;50.656;7.188;2023-09-19T14:51:41;4.53;;;2.03;;
9940;SDS011;5009;50.656;7.188;2023-09-19T14:54:09;3.15;;;2.00;;
9940;SDS011;5009;50.656;7.188;2023-09-19T14:56:35;4.95;;;2.00;;
9940;SDS011;5009;50.656;7.188;2023-09-19T14:59:00;3.50;;;2.03;;
9940;SDS011;5009;50.656;7.188;2023-09-19T15:01:27;2.65;;;2.30;;
9940;SDS011;5009;50.656;7.188;2023-09-19T15:03:54;2.45;;;2.00;;
9940;SDS011;5009;50.656;7.188;2023-09-19T15:06:20;2.83;;;2.10;;
9940;SDS011;5009;50.656;7.188;2023-09-19T15:08:46;3.70;;;2.00;;
9940;SDS011;5009;50.656;7.188;2023-09-19T15:11:16;4.00;;;2.28;;
9940;SDS011;5009;50.656;7.188;2023-09-19T15:13:42;3.63;;;2.25;;
9940;SDS011;5009;50.656;7.188;2023-09-19T15:16:09;3.00;;;2.25;;
9940;SDS011;5009;50.656;7.188;2023-09-19T15:18:40;4.03;;;2.38;;
9940;SDS011;5009;50.656;7.188;2023-09-19T15:21:08;3.53;;;2.33;;
9940;SDS011;5009;50.656;7.188;2023-09-19T15:23:35;3.55;;;2.65;;
9940;SDS011;5009;50.656;7.188;2023-09-19T15:26:13;4.35;;;1.98;;
9940;SDS011;5009;50.656;7.188;2023-09-19T15:28:45;4.50;;;2.08;;
9940;SDS011;5009;50.656;7.188;2023-09-19T15:31:11;4.00;;;2.35;;
9940;SDS011;5009;50.656;7.188;2023-09-19T15:33:37;4.00;;;1.95;;
9940;SDS011;5009;50.656;7.188;2023-09-19T15:36:05;3.75;;;2.40;;
9940;SDS011;5009;50.656;7.188;2023-09-19T15:41:31;4.43;;;2.30;;
9940;SDS011;5009;50.656;7.188;2023-09-19T15:43:57;2.95;;;1.98;;
9940;SDS011;5009;50.656;7.188;2023-09-19T15:46:26;4.15;;;2.03;;
9940;SDS011;5009;50.656;7.188;2023-09-19T15:48:54;4.93;;;2.17;;
9940;SDS011;5009;50.656;7.188;2023-09-19T15:51:20;3.70;;;2.05;;
9940;SDS011;5009;50.656;7.188;2023-09-19T15:53:46;4.05;;;2.17;;
9940;SDS011;5009;50.656;7.188;2023-09-19T15:56:14;4.07;;;1.98;;
9940;SDS011;5009;50.656;7.188;2023-09-19T15:58:43;2.75;;;2.03;;
9940;SDS011;5009;50.656;7.188;2023-09-19T16:01:09;3.50;;;2.25;;
9940;SDS011;5009;50.656;7.188;2023-09-19T16:03:39;3.25;;;2.03;;
9940;SDS011;5009;50.656;7.188;2023-09-19T16:06:09;3.25;;;1.83;;
9940;SDS011;5009;50.656;7.188;2023-09-19T16:08:42;2.28;;;1.60;;
9940;SDS011;5009;50.656;7.188;2023-09-19T16:11:12;4.05;;;2.00;;
9940;SDS011;5009;50.656;7.188;2023-09-19T16:13:39;2.33;;;1.50;;
9940;SDS011;5009;50.656;7.188;2023-09-19T16:16:09;4.32;;;2.40;;
9940;SDS011;5009;50.656;7.188;2023-09-19T16:18:37;3.15;;;2.25;;
9940;SDS011;5009;50.656;7.188;2023-09-19T16:21:05;3.92;;;1.90;;
9940;SDS011;5009;50.656;7.188;2023-09-19T16:23:33;4.35;;;1.80;;
9940;SDS011;5009;50.656;7.188;2023-09-19T16:26:04;3.15;;;1.90;;
9940;SDS011;5009;50.656;7.188;2023-09-19T16:28:31;3.53;;;2.15;;
9940;SDS011;5009;50.656;7.188;2023-09-19T16:30:59;2.65;;;2.05;;
9940;SDS011;5009;50.656;7.188;2023-09-19T16:33:25;3.88;;;2.88;;
9940;SDS011;5009;50.656;7.188;2023-09-19T16:35:51;3.33;;;2.53;;
9940;SDS011;5009;50.656;7.188;2023-09-19T16:38:17;4.40;;;2.58;;
9940;SDS011;5009;50.656;7.188;2023-09-19T16:40:51;5.43;;;2.58;;
9940;SDS011;5009;50.656;7.188;2023-09-19T16:43:17;3.33;;;2.40;;
9940;SDS011;5009;50.656;7.188;2023-09-19T16:45:51;2.38;;;1.90;;
9940;SDS011;5009;50.656;7.188;2023-09-19T16:48:21;6.50;;;2.40;;
9940;SDS011;5009;50.656;7.188;2023-09-19T16:50:50;3.45;;;2.40;;
9940;SDS011;5009;50.656;7.188;2023-09-19T16:53:17;3.17;;;2.40;;
9940;SDS011;5009;50.656;7.188;2023-09-19T16:55:46;4.65;;;2.50;;
9940;SDS011;5009;50.656;7.188;2023-09-19T16:58:13;4.63;;;2.25;;
9940;SDS011;5009;50.656;7.188;2023-09-19T17:00:39;3.50;;;2.13;;
9940;SDS011;5009;50.656;7.188;2023-09-19T17:03:05;6.72;;;2.90;;
9940;SDS011;5009;50.656;7.188;2023-09-19T17:05:31;5.07;;;2.40;;
9940;SDS011;5009;50.656;7.188;2023-09-19T17:07:57;2.33;;;2.00;;
9940;SDS011;5009;50.656;7.188;2023-09-19T17:10:32;4.63;;;2.40;;
9940;SDS011;5009;50.656;7.188;2023-09-19T17:12:59;3.63;;;2.10;;
9940;SDS011;5009;50.656;7.188;2023-09-19T17:15:25;5.28;;;2.30;;
9940;SDS011;5009;50.656;7.188;2023-09-19T17:17:50;4.88;;;2.83;;
9940;SDS011;5009;50.656;7.188;2023-09-19T17:20:17;3.60;;;2.60;;
9940;SDS011;5009;50.656;7.188;2023-09-19T17:22:44;4.05;;;2.45;;
9940;SDS011;5009;50.656;7.188;2023-09-19T17:25:09;4.80;;;2.25;;
9940;SDS011;5009;50.656;7.188;2023-09-19T17:27:37;2.47;;;2.28;;
9940;SDS011;5009;50.656;7.188;2023-09-19T17:30:04;3.17;;;2.22;;
9940;SDS011;5009;50.656;7.188;2023-09-19T17:32:34;7.20;;;2.20;;
9940;SDS011;5009;50.656;7.188;2023-09-19T17:35:01;5.13;;;2.50;;
9940;SDS011;5009;50.656;7.188;2023-09-19T17:37:28;4.18;;;2.42;;
9940;SDS011;5009;50.656;7.188;2023-09-19T17:39:54;3.05;;;1.90;;
9940;SDS011;5009;50.656;7.188;2023-09-19T17:42:19;4.05;;;2.20;;
9940;SDS011;5009;50.656;7.188;2023-09-19T17:44:45;3.97;;;2.25;;
9940;SDS011;5009;50.656;7.188;2023-09-19T17:47:11;7.60;;;2.75;;
9940;SDS011;5009;50.656;7.188;2023-09-19T17:49:36;5.93;;;3.00;;
9940;SDS011;5009;50.656;7.188;2023-09-19T17:52:02;3.75;;;2.42;;
9940;SDS011;5009;50.656;7.188;2023-09-19T17:54:29;3.55;;;2.50;;
9940;SDS011;5009;50.656;7.188;2023-09-19T17:56:56;4.45;;;2.47;;
9940;SDS011;5009;50.656;7.188;2023-09-19T17:59:21;4.30;;;2.20;;
9940;SDS011;5009;50.656;7.188;2023-09-19T18:01:48;7.75;;;2.90;;
9940;SDS011;5009;50.656;7.188;2023-09-19T18:04:14;5.10;;;2.60;;
9940;SDS011;5009;50.656;7.188;2023-09-19T18:06:40;5.47;;;2.63;;
9940;SDS011;5009;50.656;7.188;2023-09-19T18:09:07;7.30;;;2.55;;
9940;SDS011;5009;50.656;7.188;2023-09-19T18:11:32;3.42;;;2.50;;
9940;SDS011;5009;50.656;7.188;2023-09-19T18:13:58;4.15;;;2.50;;
9940;SDS011;5009;50.656;7.188;2023-09-19T18:16:24;6.32;;;2.55;;
9940;SDS011;5009;50.656;7.188;2023-09-19T18:18:52;4.40;;;2.85;;
9940;SDS011;5009;50.656;7.188;2023-09-19T18:21:18;4.03;;;2.38;;
9940;SDS011;5009;50.656;7.188;2023-09-19T18:23:54;5.35;;;2.55;;
9940;SDS011;5009;50.656;7.188;2023-09-19T18:26:21;2.97;;;2.22;;
9940;SDS011;5009;50.656;7.188;2023-09-19T18:28:47;3.28;;;2.20;;
9940;SDS011;5009;50.656;7.188;2023-09-19T18:31:13;2.53;;;2.22;;
9940;SDS011;5009;50.656;7.188;2023-09-19T18:33:39;4.32;;;2.53;;
9940;SDS011;5009;50.656;7.188;2023-09-19T18:36:06;3.47;;;2.50;;
9940;SDS011;5009;50.656;7.188;2023-09-19T18:38:42;4.60;;;2.42;;
9940;SDS011;5009;50.656;7.188;2023-09-19T18:41:09;2.55;;;2.22;;
9940;SDS011;5009;50.656;7.188;2023-09-19T18:43:37;3.10;;;2.38;;
9940;SDS011;5009;50.656;7.188;2023-09-19T18:46:04;3.53;;;2.60;;
9940;SDS011;5009;50.656;7.188;2023-09-19T18:48:30;4.32;;;2.17;;
9940;SDS011;5009;50.656;7.188;2023-09-19T18:50:56;3.35;;;2.13;;
9940;SDS011;5009;50.656;7.188;2023-09-19T18:53:22;3.42;;;2.17;;
9940;SDS011;5009;50.656;7.188;2023-09-19T18:56:01;4.72;;;2.80;;
9940;SDS011;5009;50.656;7.188;2023-09-19T18:58:30;2.80;;;2.22;;
9940;SDS011;5009;50.656;7.188;2023-09-19T19:01:08;3.25;;;1.98;;
9940;SDS011;5009;50.656;7.188;2023-09-19T19:03:36;3.85;;;1.95;;
9940;SDS011;5009;50.656;7.188;2023-09-19T19:06:07;2.78;;;1.60;;
9940;SDS011;5009;50.656;7.188;2023-09-19T19:08:34;3.47;;;2.50;;
9940;SDS011;5009;50.656;7.188;2023-09-19T19:11:00;4.60;;;3.00;;
9940;SDS011;5009;50.656;7.188;2023-09-19T19:13:30;3.00;;;2.70;;
9940;SDS011;5009;50.656;7.188;2023-09-19T19:15:57;6.22;;;3.28;;
9940;SDS011;5009;50.656;7.188;2023-09-19T19:18:24;6.47;;;3.08;;
9940;SDS011;5009;50.656;7.188;2023-09-19T19:21:03;3.72;;;2.50;;
9940;SDS011;5009;50.656;7.188;2023-09-19T19:23:33;2.55;;;2.08;;
9940;SDS011;5009;50.656;7.188;2023-09-19T19:26:00;3.50;;;1.95;;
9940;SDS011;5009;50.656;7.188;2023-09-19T19:28:29;2.28;;;2.00;;
9940;SDS011;5009;50.656;7.188;2023-09-19T19:30:56;2.85;;;2.40;;
9940;SDS011;5009;50.656;7.188;2023-09-19T19:33:21;4.88;;;2.13;;
9940;SDS011;5009;50.656;7.188;2023-09-19T19:35:49;3.28;;;2.10;;
9940;SDS011;5009;50.656;7.188;2023-09-19T19:38:15;1.73;;;1.63;;
9940;SDS011;5009;50.656;7.188;2023-09-19T19:40:41;2.92;;;2.10;;
9940;SDS011;5009;50.656;7.188;2023-09-19T19:43:08;2.20;;;2.00;;
9940;SDS011;5009;50.656;7.188;2023-09-19T19:45:34;1.70;;;1.60;;
9940;SDS011;5009;50.656;7.188;2023-09-19T19:48:00;2.65;;;2.20;;
9940;SDS011;5009;50.656;7.188;2023-09-19T19:50:26;2.67;;;2.33;;
9940;SDS011;5009;50.656;7.188;2023-09-19T19:52:56;2.72;;;2.13;;
9940;SDS011;5009;50.656;7.188;2023-09-19T19:55:25;6.07;;;2.40;;
9940;SDS011;5009;50.656;7.188;2023-09-19T19:57:55;2.92;;;2.38;;
9940;SDS011;5009;50.656;7.188;2023-09-19T20:00:21;4.10;;;2.25;;
9940;SDS011;5009;50.656;7.188;2023-09-19T20:02:48;3.15;;;1.90;;
9940;SDS011;5009;50.656;7.188;2023-09-19T20:05:17;2.92;;;2.63;;
9940;SDS011;5009;50.656;7.188;2023-09-19T20:07:43;2.47;;;2.22;;
9940;SDS011;5009;50.656;7.188;2023-09-19T20:10:10;2.20;;;1.98;;
9940;SDS011;5009;50.656;7.188;2023-09-19T20:12:41;3.80;;;2.10;;
9940;SDS011;5009;50.656;7.188;2023-09-19T20:15:07;2.60;;;2.08;;
9940;SDS011;5009;50.656;7.188;2023-09-19T20:17:35;3.63;;;2.40;;